Flight Track Log - Related Links

Times and Time Zones

All times are in EDT time to prevent confusion due to time zone crossing. See the CSJ405 flight status page for this flight to view local times or setup timezone preferences in your user account.

Time Position Orientation Groundspeed Altitude Reporting Facility
EDT Latitude Longitude Course Direction KTS MPH feet Rate Location/Type
Fri 10:14:15 PM 43.1136 -77.6794 257° West 94 108 900  Level Cleveland Center
Fri 10:15:21 PM 43.1064 -77.7225 257° West 111 128 2,100 1,134 Climbing Cleveland Center
Fri 10:16:22 PM 43.1136 -77.7619 284° West 105 121 3,300 984 Climbing Cleveland Center
Fri 10:17:23 PM 43.1250 -77.8014 292° West 107 123 4,100 271 Climbing Cleveland Center
Fri 10:19:19 PM 43.1167 -77.8667 260° West 150 173 4,100 -34 Level Toronto Center
Fri 10:20:19 PM 43.1167 -77.9500 270° West 150 173 4,000 -50 Descending Toronto Center
Fri 10:21:19 PM 43.1167 -77.9833 270° West 150 173 4,000  Level Toronto Center
Fri 10:22:19 PM 43.1333 -78.0333 295° West 150 173 4,000  Level Toronto Center
Fri 10:23:19 PM 43.1167 -78.1000 251° West 150 173 4,000  Level Toronto Center
Fri 10:24:19 PM 43.1167 -78.1667 270° West 150 173 4,000 -50 Level Toronto Center
Fri 10:25:19 PM 43.1167 -78.2167 270° West 150 173 3,900  Descending Toronto Center
Fri 10:26:55 PM 43.1333 -78.3333 281° West 149 171 4,000 37 Climbing Buffalo TRACON
Fri 10:28:01 PM 43.1500 -78.4000 289° West 150 173 4,000 -55 Level Buffalo TRACON
Fri 10:28:44 PM 43.1333 -78.4167 216° Southwest 150 173 3,900  Descending Toronto Center
Fri 10:29:44 PM 43.1333 -78.4667 270° West 150 173 4,000 50 Climbing Toronto Center
Fri 10:30:44 PM 43.1500 -78.5167 295° West 150 173 4,000 50 Level Toronto Center
Fri 10:31:44 PM 43.1500 -78.5833 270° West 150 173 4,100 50 Climbing Toronto Center
Fri 10:32:44 PM 43.1500 -78.6333 270° West 150 173 4,100 -50 Level Toronto Center
Fri 10:33:44 PM 43.1500 -78.7000 270° West 150 173 4,000 -50 Descending Toronto Center
Fri 10:34:44 PM 43.1500 -78.7500 270° West 150 173 4,000  Level Toronto Center
Fri 10:35:44 PM 43.1500 -78.8167 270° West 150 173 4,000  Level Toronto Center
Fri 10:36:44 PM 43.1500 -78.8500 270° West 150 173 4,000  Level Toronto Center
Fri 10:37:44 PM 43.1500 -78.9167 270° West 150 173 4,000  Level Toronto Center
Fri 10:38:44 PM 43.1500 -78.9667 270° West 150 173 4,000  Level Toronto Center
Fri 10:39:44 PM 43.1500 -79.0333 270° West 150 173 4,000  Level Toronto Center
Fri 10:40:44 PM 43.1500 -79.0833 270° West 150 173 4,000  Level Toronto Center
Fri 10:41:44 PM 43.1500 -79.1500 270° West 150 173 4,000  Level Toronto Center
Fri 10:42:44 PM 43.1500 -79.2000 270° West 150 173 4,000  Level Toronto Center
Fri 10:43:44 PM 43.1500 -79.2667 270° West 150 173 4,000  Level Toronto Center
Fri 10:44:44 PM 43.1500 -79.3167 270° West 150 173 4,000  Level Toronto Center
Fri 10:45:44 PM 43.1500 -79.3667 270° West 150 173 4,000  Level Toronto Center
Fri 10:46:44 PM 43.1500 -79.4333 270° West 150 173 4,000 -50 Level Toronto Center
Fri 10:47:44 PM 43.1500 -79.4667 270° West 150 173 3,900  Descending Toronto Center
Fri 10:48:44 PM 43.1667 -79.5500 285° West 150 173 4,000 -100 Climbing Toronto Center
Fri 10:49:44 PM 43.1833 -79.5833 304° West 150 173 3,700 -250 Descending Toronto Center
Fri 10:50:44 PM 43.2000 -79.6500 289° West 160 184 3,500 -200 Descending Toronto Center
Fri 10:51:44 PM 43.2167 -79.7000 295° West 160 184 3,300 -200 Descending Toronto Center
Fri 10:52:44 PM 43.2333 -79.7500 295° West 160 184 3,100 -350 Descending Toronto Center
Fri 10:53:44 PM 43.2333 -79.8167 270° West 150 173 2,600 -600 Descending Toronto Center
Fri 10:54:44 PM 43.2000 -79.8333 200° South 130 150 1,900 -550 Descending Toronto Center
Fri 10:55:44 PM 43.2000 -79.8667 270° West 80 92 1,500 -400 Descending Toronto Center
Fri 10:56:44 PM 43.1667 -79.8833 200° South 70 81 1,100 -300 Descending Toronto Center
Fri 10:57:44 PM 43.1667 -79.9000 270° West 60 69 900 -200 Descending Toronto Center

Login

Don't have an account? Register now (free) for customized features, flight alerts, and more!